<?xml version="1.0" encoding="UTF-8" standalone="no" ?>
<gpx xmlns="http://www.topografix.com/GPX/1/1" xmlns:xsi="http://www.w3.org/2001/XMLSchema-instance" xsi:schemaLocation="http://www.topografix.com/GPX/1/1 http://www.topografix.com/GPX/1/1/gpx.xsd" version="1.1" creator="VisuGPX - https://www.visugpx.com">
  <metadata>
    <name>un soir d\'été</name>
    <desc><![CDATA[trajet habituel]]></desc>
  </metadata>
  <trk>
    <name><![CDATA[un soir d'été]]></name>
    <trkseg>
      <trkpt lat="48.90864" lon="2.38758">
        <ele>46</ele>
        <time>2013-08-21T18:38:37Z</time>
      </trkpt>
      <trkpt lat="48.90887" lon="2.38712">
        <ele>44</ele>
        <time>2013-08-21T18:39:32Z</time>
      </trkpt>
      <trkpt lat="48.90917" lon="2.38696">
        <ele>44</ele>
        <time>2013-08-21T18:39:39Z</time>
      </trkpt>
      <trkpt lat="48.90926" lon="2.38648">
        <ele>44</ele>
        <time>2013-08-21T18:39:53Z</time>
      </trkpt>
      <trkpt lat="48.90947" lon="2.38592">
        <ele>44</ele>
        <time>2013-08-21T18:40:06Z</time>
      </trkpt>
      <trkpt lat="48.90982" lon="2.38532">
        <ele>43</ele>
        <time>2013-08-21T18:40:20Z</time>
      </trkpt>
      <trkpt lat="48.91031" lon="2.38537">
        <ele>43</ele>
        <time>2013-08-21T18:40:27Z</time>
      </trkpt>
      <trkpt lat="48.9104" lon="2.38462">
        <ele>43</ele>
        <time>2013-08-21T18:40:34Z</time>
      </trkpt>
      <trkpt lat="48.91076" lon="2.38453">
        <ele>43</ele>
        <time>2013-08-21T18:40:48Z</time>
      </trkpt>
      <trkpt lat="48.91045" lon="2.38465">
        <ele>42</ele>
        <time>2013-08-21T18:41:09Z</time>
      </trkpt>
      <trkpt lat="48.91053" lon="2.38385">
        <ele>42</ele>
        <time>2013-08-21T18:41:16Z</time>
      </trkpt>
      <trkpt lat="48.91064" lon="2.38334">
        <ele>42</ele>
        <time>2013-08-21T18:41:23Z</time>
      </trkpt>
      <trkpt lat="48.91048" lon="2.38383">
        <ele>42</ele>
        <time>2013-08-21T18:41:37Z</time>
      </trkpt>
      <trkpt lat="48.91067" lon="2.38315">
        <ele>42</ele>
        <time>2013-08-21T18:41:43Z</time>
      </trkpt>
      <trkpt lat="48.91063" lon="2.38243">
        <ele>42</ele>
        <time>2013-08-21T18:42:11Z</time>
      </trkpt>
      <trkpt lat="48.91091" lon="2.38269">
        <ele>42</ele>
        <time>2013-08-21T18:42:18Z</time>
      </trkpt>
      <trkpt lat="48.91083" lon="2.3819">
        <ele>42</ele>
        <time>2013-08-21T18:42:39Z</time>
      </trkpt>
      <trkpt lat="48.911" lon="2.38109">
        <ele>42</ele>
        <time>2013-08-21T18:42:46Z</time>
      </trkpt>
      <trkpt lat="48.91142" lon="2.3797">
        <ele>42</ele>
        <time>2013-08-21T18:43:14Z</time>
      </trkpt>
      <trkpt lat="48.91104" lon="2.37928">
        <ele>42</ele>
        <time>2013-08-21T18:43:36Z</time>
      </trkpt>
      <trkpt lat="48.9107" lon="2.37907">
        <ele>42</ele>
        <time>2013-08-21T18:43:51Z</time>
      </trkpt>
      <trkpt lat="48.9098" lon="2.37872">
        <ele>42</ele>
        <time>2013-08-21T18:44:55Z</time>
      </trkpt>
      <trkpt lat="48.90932" lon="2.37843">
        <ele>42</ele>
        <time>2013-08-21T18:45:09Z</time>
      </trkpt>
      <trkpt lat="48.90895" lon="2.37803">
        <ele>42</ele>
        <time>2013-08-21T18:45:22Z</time>
      </trkpt>
      <trkpt lat="48.90883" lon="2.37865">
        <ele>42</ele>
        <time>2013-08-21T18:45:29Z</time>
      </trkpt>
      <trkpt lat="48.90899" lon="2.37912">
        <ele>42</ele>
        <time>2013-08-21T18:45:56Z</time>
      </trkpt>
      <trkpt lat="48.90917" lon="2.37875">
        <ele>42</ele>
        <time>2013-08-21T18:46:03Z</time>
      </trkpt>
      <trkpt lat="48.90871" lon="2.37841">
        <ele>42</ele>
        <time>2013-08-21T18:46:10Z</time>
      </trkpt>
      <trkpt lat="48.90818" lon="2.37768">
        <ele>42</ele>
        <time>2013-08-21T18:46:16Z</time>
      </trkpt>
      <trkpt lat="48.90778" lon="2.37729">
        <ele>45</ele>
        <time>2013-08-21T18:46:44Z</time>
      </trkpt>
      <trkpt lat="48.90749" lon="2.37678">
        <ele>46</ele>
        <time>2013-08-21T18:46:51Z</time>
      </trkpt>
      <trkpt lat="48.90718" lon="2.3764">
        <ele>47</ele>
        <time>2013-08-21T18:46:58Z</time>
      </trkpt>
      <trkpt lat="48.90718" lon="2.3764">
        <ele>47</ele>
        <time>2013-08-21T18:46:58Z</time>
      </trkpt>
      <trkpt lat="48.90607" lon="2.37507">
        <ele>46</ele>
        <time>2013-08-21T18:47:26Z</time>
      </trkpt>
      <trkpt lat="48.90505" lon="2.37394">
        <ele>46</ele>
        <time>2013-08-21T18:48:54Z</time>
      </trkpt>
      <trkpt lat="48.90284" lon="2.38492">
        <ele>46</ele>
        <time>2013-08-21T18:49:05Z</time>
      </trkpt>
      <trkpt lat="48.90503" lon="2.37458">
        <ele>46</ele>
        <time>2013-08-21T18:49:24Z</time>
      </trkpt>
      <trkpt lat="48.90333" lon="2.37258">
        <ele>47</ele>
        <time>2013-08-21T18:50:02Z</time>
      </trkpt>
      <trkpt lat="48.90327" lon="2.3718">
        <ele>46</ele>
        <time>2013-08-21T18:50:23Z</time>
      </trkpt>
      <trkpt lat="48.90301" lon="2.37222">
        <ele>46</ele>
        <time>2013-08-21T18:50:29Z</time>
      </trkpt>
      <trkpt lat="48.90089" lon="2.37087">
        <ele>47</ele>
        <time>2013-08-21T18:50:44Z</time>
      </trkpt>
      <trkpt lat="48.9005" lon="2.37097">
        <ele>46</ele>
        <time>2013-08-21T18:51:07Z</time>
      </trkpt>
      <trkpt lat="48.89983" lon="2.37063">
        <ele>46</ele>
        <time>2013-08-21T18:51:15Z</time>
      </trkpt>
      <trkpt lat="48.89949" lon="2.37108">
        <ele>47</ele>
        <time>2013-08-21T18:52:55Z</time>
      </trkpt>
      <trkpt lat="48.89918" lon="2.37046">
        <ele>48</ele>
        <time>2013-08-21T18:53:10Z</time>
      </trkpt>
      <trkpt lat="48.89892" lon="2.37076">
        <ele>48</ele>
        <time>2013-08-21T18:53:21Z</time>
      </trkpt>
      <trkpt lat="48.8989" lon="2.37135">
        <ele>49</ele>
        <time>2013-08-21T18:53:53Z</time>
      </trkpt>
      <trkpt lat="48.8989" lon="2.37135">
        <ele>50</ele>
        <time>2013-08-21T18:53:53Z</time>
      </trkpt>
      <trkpt lat="48.89877" lon="2.37378">
        <ele>51</ele>
        <time>2013-08-21T18:54:16Z</time>
      </trkpt>
      <trkpt lat="48.89798" lon="2.37361">
        <ele>52</ele>
        <time>2013-08-21T18:54:37Z</time>
      </trkpt>
      <trkpt lat="48.89892" lon="2.37753">
        <ele>54</ele>
        <time>2013-08-21T18:54:52Z</time>
      </trkpt>
      <trkpt lat="48.89889" lon="2.37799">
        <ele>54</ele>
        <time>2013-08-21T18:55:13Z</time>
      </trkpt>
      <trkpt lat="48.89891" lon="2.3785">
        <ele>54</ele>
        <time>2013-08-21T18:55:26Z</time>
      </trkpt>
      <trkpt lat="48.89888" lon="2.37991">
        <ele>54</ele>
        <time>2013-08-21T18:55:56Z</time>
      </trkpt>
      <trkpt lat="48.89908" lon="2.38071">
        <ele>53</ele>
        <time>2013-08-21T18:56:12Z</time>
      </trkpt>
      <trkpt lat="48.89872" lon="2.38056">
        <ele>53</ele>
        <time>2013-08-21T18:56:19Z</time>
      </trkpt>
      <trkpt lat="48.89853" lon="2.38174">
        <ele>52</ele>
        <time>2013-08-21T18:56:43Z</time>
      </trkpt>
      <trkpt lat="48.89883" lon="2.38273">
        <ele>50</ele>
        <time>2013-08-21T18:56:55Z</time>
      </trkpt>
      <trkpt lat="48.89886" lon="2.38361">
        <ele>50</ele>
        <time>2013-08-21T18:57:03Z</time>
      </trkpt>
      <trkpt lat="48.89881" lon="2.38426">
        <ele>51</ele>
        <time>2013-08-21T18:57:10Z</time>
      </trkpt>
      <trkpt lat="48.89879" lon="2.38371">
        <ele>51</ele>
        <time>2013-08-21T18:57:18Z</time>
      </trkpt>
      <trkpt lat="48.89876" lon="2.38421">
        <ele>52</ele>
        <time>2013-08-21T18:57:27Z</time>
      </trkpt>
      <trkpt lat="48.89879" lon="2.38468">
        <ele>52</ele>
        <time>2013-08-21T18:57:41Z</time>
      </trkpt>
      <trkpt lat="48.89867" lon="2.38592">
        <ele>53</ele>
        <time>2013-08-21T18:57:47Z</time>
      </trkpt>
      <trkpt lat="48.89843" lon="2.38557">
        <ele>54</ele>
        <time>2013-08-21T18:57:56Z</time>
      </trkpt>
      <trkpt lat="48.89775" lon="2.3859">
        <ele>54</ele>
        <time>2013-08-21T18:58:03Z</time>
      </trkpt>
      <trkpt lat="48.89732" lon="2.3856">
        <ele>54</ele>
        <time>2013-08-21T18:58:10Z</time>
      </trkpt>
      <trkpt lat="48.89711" lon="2.38522">
        <ele>54</ele>
        <time>2013-08-21T18:58:24Z</time>
      </trkpt>
      <trkpt lat="48.89688" lon="2.38489">
        <ele>54</ele>
        <time>2013-08-21T18:58:45Z</time>
      </trkpt>
      <trkpt lat="48.8963" lon="2.38432">
        <ele>53</ele>
        <time>2013-08-21T18:59:12Z</time>
      </trkpt>
      <trkpt lat="48.89631" lon="2.38385">
        <ele>53</ele>
        <time>2013-08-21T18:59:19Z</time>
      </trkpt>
      <trkpt lat="48.89583" lon="2.38343">
        <ele>54</ele>
        <time>2013-08-21T18:59:39Z</time>
      </trkpt>
      <trkpt lat="48.89553" lon="2.38323">
        <ele>54</ele>
        <time>2013-08-21T18:59:46Z</time>
      </trkpt>
      <trkpt lat="48.89533" lon="2.38434">
        <ele>54</ele>
        <time>2013-08-21T18:59:59Z</time>
      </trkpt>
      <trkpt lat="48.8955" lon="2.38478">
        <ele>55</ele>
        <time>2013-08-21T19:00:07Z</time>
      </trkpt>
      <trkpt lat="48.89482" lon="2.38528">
        <ele>55</ele>
        <time>2013-08-21T19:00:15Z</time>
      </trkpt>
      <trkpt lat="48.8946" lon="2.38483">
        <ele>55</ele>
        <time>2013-08-21T19:00:22Z</time>
      </trkpt>
      <trkpt lat="48.89426" lon="2.38486">
        <ele>55</ele>
        <time>2013-08-21T19:00:36Z</time>
      </trkpt>
      <trkpt lat="48.89363" lon="2.3853">
        <ele>55</ele>
        <time>2013-08-21T19:00:52Z</time>
      </trkpt>
      <trkpt lat="48.89306" lon="2.38557">
        <ele>56</ele>
        <time>2013-08-21T19:01:05Z</time>
      </trkpt>
      <trkpt lat="48.89224" lon="2.38623">
        <ele>56</ele>
        <time>2013-08-21T19:01:19Z</time>
      </trkpt>
      <trkpt lat="48.89196" lon="2.38583">
        <ele>56</ele>
        <time>2013-08-21T19:01:41Z</time>
      </trkpt>
      <trkpt lat="48.89141" lon="2.38568">
        <ele>56</ele>
        <time>2013-08-21T19:01:55Z</time>
      </trkpt>
      <trkpt lat="48.89101" lon="2.38477">
        <ele>56</ele>
        <time>2013-08-21T19:02:10Z</time>
      </trkpt>
      <trkpt lat="48.89039" lon="2.3841">
        <ele>56</ele>
        <time>2013-08-21T19:02:24Z</time>
      </trkpt>
      <trkpt lat="48.8902" lon="2.3836">
        <ele>56</ele>
        <time>2013-08-21T19:02:32Z</time>
      </trkpt>
      <trkpt lat="48.89013" lon="2.38311">
        <ele>56</ele>
        <time>2013-08-21T19:02:39Z</time>
      </trkpt>
      <trkpt lat="48.88996" lon="2.38262">
        <ele>56</ele>
        <time>2013-08-21T19:02:53Z</time>
      </trkpt>
      <trkpt lat="48.88966" lon="2.38215">
        <ele>56</ele>
        <time>2013-08-21T19:03:00Z</time>
      </trkpt>
      <trkpt lat="48.8893" lon="2.38135">
        <ele>56</ele>
        <time>2013-08-21T19:03:15Z</time>
      </trkpt>
      <trkpt lat="48.88914" lon="2.38067">
        <ele>56</ele>
        <time>2013-08-21T19:03:30Z</time>
      </trkpt>
      <trkpt lat="48.8888" lon="2.38038">
        <ele>56</ele>
        <time>2013-08-21T19:03:36Z</time>
      </trkpt>
      <trkpt lat="48.88864" lon="2.37997">
        <ele>56</ele>
        <time>2013-08-21T19:03:45Z</time>
      </trkpt>
      <trkpt lat="48.8889" lon="2.37879">
        <ele>59</ele>
        <time>2013-08-21T19:04:11Z</time>
      </trkpt>
      <trkpt lat="48.8885" lon="2.37823">
        <ele>59</ele>
        <time>2013-08-21T19:04:26Z</time>
      </trkpt>
      <trkpt lat="48.88839" lon="2.37763">
        <ele>59</ele>
        <time>2013-08-21T19:04:33Z</time>
      </trkpt>
      <trkpt lat="48.88799" lon="2.37765">
        <ele>59</ele>
        <time>2013-08-21T19:04:39Z</time>
      </trkpt>
      <trkpt lat="48.88763" lon="2.37696">
        <ele>58</ele>
        <time>2013-08-21T19:04:54Z</time>
      </trkpt>
      <trkpt lat="48.88721" lon="2.37579">
        <ele>58</ele>
        <time>2013-08-21T19:05:18Z</time>
      </trkpt>
      <trkpt lat="48.88689" lon="2.37529">
        <ele>58</ele>
        <time>2013-08-21T19:05:25Z</time>
      </trkpt>
      <trkpt lat="48.88661" lon="2.37496">
        <ele>58</ele>
        <time>2013-08-21T19:05:32Z</time>
      </trkpt>
      <trkpt lat="48.8864" lon="2.37453">
        <ele>57</ele>
        <time>2013-08-21T19:05:39Z</time>
      </trkpt>
      <trkpt lat="48.8864" lon="2.37453">
        <ele>57</ele>
        <time>2013-08-21T19:05:39Z</time>
      </trkpt>
      <trkpt lat="48.88536" lon="2.37264">
        <ele>58</ele>
        <time>2013-08-21T19:06:15Z</time>
      </trkpt>
      <trkpt lat="48.88535" lon="2.37165">
        <ele>58</ele>
        <time>2013-08-21T19:06:22Z</time>
      </trkpt>
      <trkpt lat="48.88502" lon="2.3715">
        <ele>58</ele>
        <time>2013-08-21T19:06:29Z</time>
      </trkpt>
      <trkpt lat="48.88478" lon="2.37113">
        <ele>58</ele>
        <time>2013-08-21T19:06:37Z</time>
      </trkpt>
      <trkpt lat="48.88423" lon="2.36987">
        <ele>57</ele>
        <time>2013-08-21T19:06:59Z</time>
      </trkpt>
      <trkpt lat="48.88448" lon="2.36934">
        <ele>58</ele>
        <time>2013-08-21T19:07:13Z</time>
      </trkpt>
      <trkpt lat="48.88432" lon="2.36876">
        <ele>58</ele>
        <time>2013-08-21T19:07:20Z</time>
      </trkpt>
      <trkpt lat="48.88399" lon="2.36801">
        <ele>58</ele>
        <time>2013-08-21T19:07:26Z</time>
      </trkpt>
      <trkpt lat="48.88421" lon="2.36874">
        <ele>59</ele>
        <time>2013-08-21T19:07:33Z</time>
      </trkpt>
      <trkpt lat="48.88447" lon="2.36929">
        <ele>59</ele>
        <time>2013-08-21T19:07:42Z</time>
      </trkpt>
      <trkpt lat="48.8841" lon="2.36891">
        <ele>59</ele>
        <time>2013-08-21T19:07:49Z</time>
      </trkpt>
      <trkpt lat="48.88416" lon="2.36844">
        <ele>59</ele>
        <time>2013-08-21T19:08:06Z</time>
      </trkpt>
      <trkpt lat="48.88419" lon="2.36889">
        <ele>58</ele>
        <time>2013-08-21T19:08:49Z</time>
      </trkpt>
      <trkpt lat="48.88379" lon="2.36856">
        <ele>58</ele>
        <time>2013-08-21T19:08:56Z</time>
      </trkpt>
      <trkpt lat="48.88356" lon="2.36825">
        <ele>58</ele>
        <time>2013-08-21T19:09:18Z</time>
      </trkpt>
      <trkpt lat="48.88356" lon="2.36825">
        <ele>58</ele>
        <time>2013-08-21T19:09:18Z</time>
      </trkpt>
      <trkpt lat="48.88234" lon="2.36665">
        <ele>57</ele>
        <time>2013-08-21T19:10:18Z</time>
      </trkpt>
      <trkpt lat="48.88211" lon="2.36624">
        <ele>57</ele>
        <time>2013-08-21T19:10:26Z</time>
      </trkpt>
      <trkpt lat="48.88179" lon="2.3661">
        <ele>57</ele>
        <time>2013-08-21T19:10:40Z</time>
      </trkpt>
      <trkpt lat="48.88148" lon="2.36545">
        <ele>57</ele>
        <time>2013-08-21T19:10:57Z</time>
      </trkpt>
      <trkpt lat="48.88136" lon="2.36504">
        <ele>57</ele>
        <time>2013-08-21T19:11:15Z</time>
      </trkpt>
      <trkpt lat="48.88141" lon="2.36451">
        <ele>57</ele>
        <time>2013-08-21T19:11:22Z</time>
      </trkpt>
      <trkpt lat="48.88122" lon="2.36417">
        <ele>57</ele>
        <time>2013-08-21T19:11:32Z</time>
      </trkpt>
      <trkpt lat="48.88108" lon="2.36367">
        <ele>56</ele>
        <time>2013-08-21T19:11:46Z</time>
      </trkpt>
      <trkpt lat="48.88093" lon="2.36269">
        <ele>56</ele>
        <time>2013-08-21T19:12:07Z</time>
      </trkpt>
      <trkpt lat="48.88076" lon="2.36233">
        <ele>56</ele>
        <time>2013-08-21T19:12:22Z</time>
      </trkpt>
      <trkpt lat="48.88026" lon="2.361">
        <ele>56</ele>
        <time>2013-08-21T19:12:56Z</time>
      </trkpt>
      <trkpt lat="48.87993" lon="2.3605">
        <ele>56</ele>
        <time>2013-08-21T19:13:10Z</time>
      </trkpt>
      <trkpt lat="48.87982" lon="2.35879">
        <ele>56</ele>
        <time>2013-08-21T19:13:30Z</time>
      </trkpt>
      <trkpt lat="48.87972" lon="2.35824">
        <ele>56</ele>
        <time>2013-08-21T19:14:05Z</time>
      </trkpt>
      <trkpt lat="48.87951" lon="2.35758">
        <ele>56</ele>
        <time>2013-08-21T19:14:19Z</time>
      </trkpt>
      <trkpt lat="48.87963" lon="2.35701">
        <ele>56</ele>
        <time>2013-08-21T19:14:40Z</time>
      </trkpt>
      <trkpt lat="48.87954" lon="2.35657">
        <ele>56</ele>
        <time>2013-08-21T19:14:54Z</time>
      </trkpt>
      <trkpt lat="48.87996" lon="2.35562">
        <ele>56</ele>
        <time>2013-08-21T19:15:07Z</time>
      </trkpt>
      <trkpt lat="48.8802" lon="2.35434">
        <ele>56</ele>
        <time>2013-08-21T19:15:20Z</time>
      </trkpt>
      <trkpt lat="48.88025" lon="2.35366">
        <ele>56</ele>
        <time>2013-08-21T19:15:54Z</time>
      </trkpt>
      <trkpt lat="48.88036" lon="2.35316">
        <ele>56</ele>
        <time>2013-08-21T19:16:01Z</time>
      </trkpt>
      <trkpt lat="48.88043" lon="2.35258">
        <ele>56</ele>
        <time>2013-08-21T19:16:23Z</time>
      </trkpt>
      <trkpt lat="48.88068" lon="2.3522">
        <ele>56</ele>
        <time>2013-08-21T19:16:44Z</time>
      </trkpt>
      <trkpt lat="48.88123" lon="2.35156">
        <ele>56</ele>
        <time>2013-08-21T19:16:57Z</time>
      </trkpt>
      <trkpt lat="48.88165" lon="2.35125">
        <ele>56</ele>
        <time>2013-08-21T19:17:16Z</time>
      </trkpt>
      <trkpt lat="48.88212" lon="2.35123">
        <ele>56</ele>
        <time>2013-08-21T19:17:23Z</time>
      </trkpt>
      <trkpt lat="48.88255" lon="2.35046">
        <ele>56</ele>
        <time>2013-08-21T19:17:37Z</time>
      </trkpt>
      <trkpt lat="48.88295" lon="2.35007">
        <ele>56</ele>
        <time>2013-08-21T19:17:44Z</time>
      </trkpt>
      <trkpt lat="48.88326" lon="2.34984">
        <ele>55</ele>
        <time>2013-08-21T19:17:59Z</time>
      </trkpt>
      <trkpt lat="48.8837" lon="2.34977">
        <ele>54</ele>
        <time>2013-08-21T19:18:13Z</time>
      </trkpt>
      <trkpt lat="48.884" lon="2.34959">
        <ele>53</ele>
        <time>2013-08-21T19:18:34Z</time>
      </trkpt>
      <trkpt lat="48.88403" lon="2.34912">
        <ele>52</ele>
        <time>2013-08-21T19:18:48Z</time>
      </trkpt>
      <trkpt lat="48.88372" lon="2.34925">
        <ele>51</ele>
        <time>2013-08-21T19:18:54Z</time>
      </trkpt>
      <trkpt lat="48.88367" lon="2.34879">
        <ele>51</ele>
        <time>2013-08-21T19:19:03Z</time>
      </trkpt>
      <trkpt lat="48.884" lon="2.34885">
        <ele>52</ele>
        <time>2013-08-21T19:19:10Z</time>
      </trkpt>
      <trkpt lat="48.88372" lon="2.34808">
        <ele>52</ele>
        <time>2013-08-21T19:19:17Z</time>
      </trkpt>
      <trkpt lat="48.88366" lon="2.34675">
        <ele>51</ele>
        <time>2013-08-21T19:19:45Z</time>
      </trkpt>
      <trkpt lat="48.8834" lon="2.34712">
        <ele>50</ele>
        <time>2013-08-21T19:20:00Z</time>
      </trkpt>
      <trkpt lat="48.8833" lon="2.34639">
        <ele>54</ele>
        <time>2013-08-21T19:20:11Z</time>
      </trkpt>
      <trkpt lat="48.88326" lon="2.34585">
        <ele>55</ele>
        <time>2013-08-21T19:20:19Z</time>
      </trkpt>
      <trkpt lat="48.88305" lon="2.34488">
        <ele>53</ele>
        <time>2013-08-21T19:20:41Z</time>
      </trkpt>
      <trkpt lat="48.88297" lon="2.344">
        <ele>52</ele>
        <time>2013-08-21T19:21:02Z</time>
      </trkpt>
      <trkpt lat="48.88277" lon="2.34355">
        <ele>56</ele>
        <time>2013-08-21T19:21:24Z</time>
      </trkpt>
      <trkpt lat="48.88262" lon="2.34252">
        <ele>55</ele>
        <time>2013-08-21T19:21:38Z</time>
      </trkpt>
      <trkpt lat="48.88241" lon="2.34163">
        <ele>54</ele>
        <time>2013-08-21T19:21:52Z</time>
      </trkpt>
      <trkpt lat="48.88224" lon="2.34058">
        <ele>52</ele>
        <time>2013-08-21T19:22:14Z</time>
      </trkpt>
      <trkpt lat="48.88213" lon="2.33939">
        <ele>51</ele>
        <time>2013-08-21T19:22:35Z</time>
      </trkpt>
      <trkpt lat="48.88222" lon="2.33846">
        <ele>50</ele>
        <time>2013-08-21T19:22:50Z</time>
      </trkpt>
      <trkpt lat="48.88251" lon="2.33797">
        <ele>50</ele>
        <time>2013-08-21T19:23:00Z</time>
      </trkpt>
      <trkpt lat="48.88232" lon="2.33747">
        <ele>50</ele>
        <time>2013-08-21T19:23:14Z</time>
      </trkpt>
      <trkpt lat="48.88246" lon="2.33708">
        <ele>49</ele>
        <time>2013-08-21T19:23:28Z</time>
      </trkpt>
      <trkpt lat="48.88273" lon="2.33615">
        <ele>49</ele>
        <time>2013-08-21T19:23:36Z</time>
      </trkpt>
      <trkpt lat="48.88298" lon="2.33556">
        <ele>49</ele>
        <time>2013-08-21T19:23:50Z</time>
      </trkpt>
      <trkpt lat="48.88328" lon="2.3346">
        <ele>49</ele>
        <time>2013-08-21T19:24:04Z</time>
      </trkpt>
      <trkpt lat="48.88401" lon="2.33279">
        <ele>49</ele>
        <time>2013-08-21T19:24:40Z</time>
      </trkpt>
      <trkpt lat="48.88374" lon="2.33244">
        <ele>49</ele>
        <time>2013-08-21T19:25:15Z</time>
      </trkpt>
      <trkpt lat="48.88401" lon="2.33175">
        <ele>49</ele>
        <time>2013-08-21T19:25:35Z</time>
      </trkpt>
      <trkpt lat="48.8843" lon="2.33076">
        <ele>49</ele>
        <time>2013-08-21T19:25:50Z</time>
      </trkpt>
      <trkpt lat="48.88442" lon="2.32949">
        <ele>49</ele>
        <time>2013-08-21T19:26:54Z</time>
      </trkpt>
      <trkpt lat="48.88431" lon="2.32908">
        <ele>49</ele>
        <time>2013-08-21T19:27:01Z</time>
      </trkpt>
      <trkpt lat="48.88404" lon="2.32849">
        <ele>49</ele>
        <time>2013-08-21T19:27:08Z</time>
      </trkpt>
      <trkpt lat="48.88404" lon="2.32849">
        <ele>49</ele>
        <time>2013-08-21T19:27:08Z</time>
      </trkpt>
      <trkpt lat="48.88326" lon="2.32613">
        <ele>49</ele>
        <time>2013-08-21T19:28:02Z</time>
      </trkpt>
      <trkpt lat="48.88326" lon="2.32613">
        <ele>49</ele>
        <time>2013-08-21T19:28:02Z</time>
      </trkpt>
      <trkpt lat="48.88288" lon="2.32421">
        <ele>49</ele>
        <time>2013-08-21T19:28:38Z</time>
      </trkpt>
      <trkpt lat="48.88246" lon="2.32073">
        <ele>49</ele>
        <time>2013-08-21T19:29:50Z</time>
      </trkpt>
      <trkpt lat="48.88236" lon="2.32016">
        <ele>49</ele>
        <time>2013-08-21T19:30:04Z</time>
      </trkpt>
      <trkpt lat="48.88271" lon="2.32011">
        <ele>49</ele>
        <time>2013-08-21T19:30:11Z</time>
      </trkpt>
      <trkpt lat="48.88205" lon="2.32003">
        <ele>49</ele>
        <time>2013-08-21T19:30:25Z</time>
      </trkpt>
      <trkpt lat="48.88195" lon="2.31959">
        <ele>49</ele>
        <time>2013-08-21T19:30:32Z</time>
      </trkpt>
      <trkpt lat="48.88195" lon="2.31959">
        <ele>49</ele>
        <time>2013-08-21T19:30:32Z</time>
      </trkpt>
      <trkpt lat="48.88138" lon="2.31717">
        <ele>49</ele>
        <time>2013-08-21T19:31:20Z</time>
      </trkpt>
      <trkpt lat="48.88142" lon="2.31626">
        <ele>49</ele>
        <time>2013-08-21T19:31:34Z</time>
      </trkpt>
      <trkpt lat="48.88138" lon="2.31567">
        <ele>49</ele>
        <time>2013-08-21T19:31:48Z</time>
      </trkpt>
      <trkpt lat="48.88155" lon="2.31525">
        <ele>49</ele>
        <time>2013-08-21T19:32:01Z</time>
      </trkpt>
      <trkpt lat="48.88123" lon="2.31522">
        <ele>49</ele>
        <time>2013-08-21T19:32:15Z</time>
      </trkpt>
      <trkpt lat="48.88108" lon="2.3146">
        <ele>49</ele>
        <time>2013-08-21T19:32:23Z</time>
      </trkpt>
      <trkpt lat="48.88106" lon="2.31397">
        <ele>49</ele>
        <time>2013-08-21T19:32:30Z</time>
      </trkpt>
      <trkpt lat="48.88086" lon="2.31294">
        <ele>49</ele>
        <time>2013-08-21T19:32:44Z</time>
      </trkpt>
      <trkpt lat="48.88089" lon="2.3124">
        <ele>49</ele>
        <time>2013-08-21T19:32:51Z</time>
      </trkpt>
      <trkpt lat="48.88075" lon="2.31189">
        <ele>49</ele>
        <time>2013-08-21T19:33:12Z</time>
      </trkpt>
      <trkpt lat="48.88047" lon="2.30976">
        <ele>49</ele>
        <time>2013-08-21T19:33:40Z</time>
      </trkpt>
      <trkpt lat="48.88082" lon="2.30924">
        <ele>49</ele>
        <time>2013-08-21T19:33:56Z</time>
      </trkpt>
      <trkpt lat="48.88049" lon="2.30898">
        <ele>49</ele>
        <time>2013-08-21T19:34:03Z</time>
      </trkpt>
      <trkpt lat="48.88018" lon="2.30847">
        <ele>49</ele>
        <time>2013-08-21T19:34:31Z</time>
      </trkpt>
      <trkpt lat="48.88008" lon="2.30804">
        <ele>49</ele>
        <time>2013-08-21T19:34:38Z</time>
      </trkpt>
      <trkpt lat="48.87986" lon="2.30736">
        <ele>49</ele>
        <time>2013-08-21T19:34:53Z</time>
      </trkpt>
      <trkpt lat="48.87975" lon="2.30655">
        <ele>46</ele>
        <time>2013-08-21T19:35:05Z</time>
      </trkpt>
      <trkpt lat="48.8796" lon="2.30583">
        <ele>46</ele>
        <time>2013-08-21T19:35:12Z</time>
      </trkpt>
      <trkpt lat="48.87959" lon="2.30534">
        <ele>46</ele>
        <time>2013-08-21T19:35:18Z</time>
      </trkpt>
      <trkpt lat="48.87953" lon="2.30488">
        <ele>46</ele>
        <time>2013-08-21T19:35:25Z</time>
      </trkpt>
      <trkpt lat="48.87939" lon="2.30438">
        <ele>47</ele>
        <time>2013-08-21T19:35:46Z</time>
      </trkpt>
      <trkpt lat="48.87926" lon="2.30355">
        <ele>47</ele>
        <time>2013-08-21T19:36:00Z</time>
      </trkpt>
      <trkpt lat="48.87941" lon="2.30292">
        <ele>48</ele>
        <time>2013-08-21T19:36:21Z</time>
      </trkpt>
      <trkpt lat="48.87914" lon="2.30254">
        <ele>48</ele>
        <time>2013-08-21T19:36:49Z</time>
      </trkpt>
      <trkpt lat="48.879" lon="2.30204">
        <ele>48</ele>
        <time>2013-08-21T19:37:04Z</time>
      </trkpt>
      <trkpt lat="48.879" lon="2.30204">
        <ele>48</ele>
        <time>2013-08-21T19:37:04Z</time>
      </trkpt>
      <trkpt lat="48.87854" lon="2.3003">
        <ele>48</ele>
        <time>2013-08-21T19:37:39Z</time>
      </trkpt>
      <trkpt lat="48.87778" lon="2.29852">
        <ele>48</ele>
        <time>2013-08-21T19:38:43Z</time>
      </trkpt>
      <trkpt lat="48.87802" lon="2.29817">
        <ele>48</ele>
        <time>2013-08-21T19:38:58Z</time>
      </trkpt>
      <trkpt lat="48.8778" lon="2.29763">
        <ele>48</ele>
        <time>2013-08-21T19:39:33Z</time>
      </trkpt>
      <trkpt lat="48.87727" lon="2.29752">
        <ele>48</ele>
        <time>2013-08-21T19:39:47Z</time>
      </trkpt>
      <trkpt lat="48.87698" lon="2.29732">
        <ele>48</ele>
        <time>2013-08-21T19:40:01Z</time>
      </trkpt>
      <trkpt lat="48.87665" lon="2.29743">
        <ele>48</ele>
        <time>2013-08-21T19:40:07Z</time>
      </trkpt>
      <trkpt lat="48.8764" lon="2.29696">
        <ele>48</ele>
        <time>2013-08-21T19:40:16Z</time>
      </trkpt>
      <trkpt lat="48.8761" lon="2.29672">
        <ele>60</ele>
        <time>2013-08-21T19:41:04Z</time>
      </trkpt>
      <trkpt lat="48.87547" lon="2.29638">
        <ele>60</ele>
        <time>2013-08-21T19:45:28Z</time>
      </trkpt>
      <trkpt lat="48.8752" lon="2.29613">
        <ele>60</ele>
        <time>2013-08-21T19:45:35Z</time>
      </trkpt>
      <trkpt lat="48.87481" lon="2.29596">
        <ele>59</ele>
        <time>2013-08-21T19:45:49Z</time>
      </trkpt>
      <trkpt lat="48.87467" lon="2.29636">
        <ele>57</ele>
        <time>2013-08-21T19:46:25Z</time>
      </trkpt>
      <trkpt lat="48.87421" lon="2.29633">
        <ele>56</ele>
        <time>2013-08-21T19:46:45Z</time>
      </trkpt>
      <trkpt lat="48.87399" lon="2.2956">
        <ele>56</ele>
        <time>2013-08-21T19:46:51Z</time>
      </trkpt>
      <trkpt lat="48.87354" lon="2.29586">
        <ele>54</ele>
        <time>2013-08-21T19:47:33Z</time>
      </trkpt>
      <trkpt lat="48.87377" lon="2.29628">
        <ele>53</ele>
        <time>2013-08-21T19:47:40Z</time>
      </trkpt>
      <trkpt lat="48.8735" lon="2.29606">
        <ele>58</ele>
        <time>2013-08-21T19:48:37Z</time>
      </trkpt>
      <trkpt lat="48.87325" lon="2.29672">
        <ele>57</ele>
        <time>2013-08-21T19:49:16Z</time>
      </trkpt>
      <trkpt lat="48.87294" lon="2.29775">
        <ele>57</ele>
        <time>2013-08-21T19:49:37Z</time>
      </trkpt>
      <trkpt lat="48.87258" lon="2.29852">
        <ele>56</ele>
        <time>2013-08-21T19:49:57Z</time>
      </trkpt>
      <trkpt lat="48.87245" lon="2.29917">
        <ele>56</ele>
        <time>2013-08-21T19:50:04Z</time>
      </trkpt>
      <trkpt lat="48.87194" lon="2.30043">
        <ele>53</ele>
        <time>2013-08-21T19:50:37Z</time>
      </trkpt>
      <trkpt lat="48.8716" lon="2.30148">
        <ele>51</ele>
        <time>2013-08-21T19:51:04Z</time>
      </trkpt>
      <trkpt lat="48.87157" lon="2.30202">
        <ele>51</ele>
        <time>2013-08-21T19:51:18Z</time>
      </trkpt>
      <trkpt lat="48.87145" lon="2.30252">
        <ele>50</ele>
        <time>2013-08-21T19:51:24Z</time>
      </trkpt>
      <trkpt lat="48.87125" lon="2.30296">
        <ele>50</ele>
        <time>2013-08-21T19:51:38Z</time>
      </trkpt>
      <trkpt lat="48.87102" lon="2.30388">
        <ele>49</ele>
        <time>2013-08-21T19:52:04Z</time>
      </trkpt>
      <trkpt lat="48.87083" lon="2.30449">
        <ele>49</ele>
        <time>2013-08-21T19:52:23Z</time>
      </trkpt>
      <trkpt lat="48.87063" lon="2.30491">
        <ele>48</ele>
        <time>2013-08-21T19:52:30Z</time>
      </trkpt>
      <trkpt lat="48.87046" lon="2.30536">
        <ele>47</ele>
        <time>2013-08-21T19:52:44Z</time>
      </trkpt>
      <trkpt lat="48.87036" lon="2.30578">
        <ele>47</ele>
        <time>2013-08-21T19:53:31Z</time>
      </trkpt>
      <trkpt lat="48.87002" lon="2.30633">
        <ele>48</ele>
        <time>2013-08-21T19:53:58Z</time>
      </trkpt>
      <trkpt lat="48.86991" lon="2.30729">
        <ele>48</ele>
        <time>2013-08-21T19:54:26Z</time>
      </trkpt>
      <trkpt lat="48.8695" lon="2.30809">
        <ele>46</ele>
        <time>2013-08-21T19:54:47Z</time>
      </trkpt>
      <trkpt lat="48.86932" lon="2.30876">
        <ele>46</ele>
        <time>2013-08-21T19:55:07Z</time>
      </trkpt>
      <trkpt lat="48.86899" lon="2.30926">
        <ele>46</ele>
        <time>2013-08-21T19:55:13Z</time>
      </trkpt>
      <trkpt lat="48.86869" lon="2.3094">
        <ele>46</ele>
        <time>2013-08-21T19:55:20Z</time>
      </trkpt>
      <trkpt lat="48.86841" lon="2.30893">
        <ele>46</ele>
        <time>2013-08-21T19:55:33Z</time>
      </trkpt>
      <trkpt lat="48.86841" lon="2.30893">
        <ele>46</ele>
        <time>2013-08-21T19:55:33Z</time>
      </trkpt>
      <trkpt lat="48.86741" lon="2.307">
        <ele>47</ele>
        <time>2013-08-21T19:56:21Z</time>
      </trkpt>
      <trkpt lat="48.86703" lon="2.30616">
        <ele>47</ele>
        <time>2013-08-21T19:56:56Z</time>
      </trkpt>
      <trkpt lat="48.86667" lon="2.30554">
        <ele>47</ele>
        <time>2013-08-21T19:57:10Z</time>
      </trkpt>
      <trkpt lat="48.86675" lon="2.30468">
        <ele>48</ele>
        <time>2013-08-21T19:57:17Z</time>
      </trkpt>
      <trkpt lat="48.86615" lon="2.30464">
        <ele>48</ele>
        <time>2013-08-21T19:57:30Z</time>
      </trkpt>
      <trkpt lat="48.86597" lon="2.30419">
        <ele>48</ele>
        <time>2013-08-21T19:57:57Z</time>
      </trkpt>
      <trkpt lat="48.86566" lon="2.30356">
        <ele>48</ele>
        <time>2013-08-21T19:58:19Z</time>
      </trkpt>
      <trkpt lat="48.86509" lon="2.30271">
        <ele>48</ele>
        <time>2013-08-21T19:58:39Z</time>
      </trkpt>
      <trkpt lat="48.86465" lon="2.30186">
        <ele>48</ele>
        <time>2013-08-21T19:59:26Z</time>
      </trkpt>
      <trkpt lat="48.86453" lon="2.3024">
        <ele>48</ele>
        <time>2013-08-21T19:59:54Z</time>
      </trkpt>
      <trkpt lat="48.86423" lon="2.30209">
        <ele>48</ele>
        <time>2013-08-21T20:00:01Z</time>
      </trkpt>
      <trkpt lat="48.86388" lon="2.30263">
        <ele>48</ele>
        <time>2013-08-21T20:00:07Z</time>
      </trkpt>
      <trkpt lat="48.86374" lon="2.30428">
        <ele>48</ele>
        <time>2013-08-21T20:00:14Z</time>
      </trkpt>
      <trkpt lat="48.86403" lon="2.30376">
        <ele>48</ele>
        <time>2013-08-21T20:00:21Z</time>
      </trkpt>
      <trkpt lat="48.86366" lon="2.30394">
        <ele>48</ele>
        <time>2013-08-21T20:00:29Z</time>
      </trkpt>
      <trkpt lat="48.86397" lon="2.30441">
        <ele>48</ele>
        <time>2013-08-21T20:00:38Z</time>
      </trkpt>
      <trkpt lat="48.86427" lon="2.30531">
        <ele>48</ele>
        <time>2013-08-21T20:00:45Z</time>
      </trkpt>
      <trkpt lat="48.86435" lon="2.3058">
        <ele>48</ele>
        <time>2013-08-21T20:00:59Z</time>
      </trkpt>
      <trkpt lat="48.8644" lon="2.30634">
        <ele>48</ele>
        <time>2013-08-21T20:01:13Z</time>
      </trkpt>
      <trkpt lat="48.86429" lon="2.30692">
        <ele>48</ele>
        <time>2013-08-21T20:01:27Z</time>
      </trkpt>
      <trkpt lat="48.86394" lon="2.30622">
        <ele>48</ele>
        <time>2013-08-21T20:01:33Z</time>
      </trkpt>
      <trkpt lat="48.86467" lon="2.30939">
        <ele>48</ele>
        <time>2013-08-21T20:01:47Z</time>
      </trkpt>
      <trkpt lat="48.86415" lon="2.3112">
        <ele>42</ele>
        <time>2013-08-21T20:02:11Z</time>
      </trkpt>
      <trkpt lat="48.863" lon="2.31141">
        <ele>43</ele>
        <time>2013-08-21T20:02:27Z</time>
      </trkpt>
      <trkpt lat="48.86376" lon="2.31315">
        <ele>30</ele>
        <time>2013-08-21T20:02:51Z</time>
      </trkpt>
      <trkpt lat="48.86375" lon="2.31318">
        <ele>30</ele>
        <time>2013-08-21T20:03:29Z</time>
      </trkpt>
      <trkpt lat="48.8632" lon="2.31328">
        <ele>31</ele>
        <time>2013-08-21T20:03:36Z</time>
      </trkpt>
      <trkpt lat="48.86333" lon="2.31271">
        <ele>31</ele>
        <time>2013-08-21T20:03:52Z</time>
      </trkpt>
      <trkpt lat="48.86278" lon="2.31297">
        <ele>31</ele>
        <time>2013-08-21T20:04:13Z</time>
      </trkpt>
      <trkpt lat="48.86222" lon="2.31322">
        <ele>31</ele>
        <time>2013-08-21T20:04:39Z</time>
      </trkpt>
      <trkpt lat="48.86185" lon="2.31288">
        <ele>43</ele>
        <time>2013-08-21T20:04:50Z</time>
      </trkpt>
      <trkpt lat="48.86144" lon="2.31273">
        <ele>45</ele>
        <time>2013-08-21T20:05:03Z</time>
      </trkpt>
      <trkpt lat="48.86116" lon="2.31246">
        <ele>44</ele>
        <time>2013-08-21T20:05:14Z</time>
      </trkpt>
      <trkpt lat="48.86047" lon="2.31232">
        <ele>45</ele>
        <time>2013-08-21T20:05:29Z</time>
      </trkpt>
      <trkpt lat="48.85995" lon="2.31248">
        <ele>45</ele>
        <time>2013-08-21T20:05:43Z</time>
      </trkpt>
      <trkpt lat="48.85951" lon="2.31251">
        <ele>44</ele>
        <time>2013-08-21T20:05:54Z</time>
      </trkpt>
      <trkpt lat="48.85895" lon="2.3134">
        <ele>48</ele>
        <time>2013-08-21T20:06:37Z</time>
      </trkpt>
      <trkpt lat="48.85862" lon="2.31304">
        <ele>48</ele>
        <time>2013-08-21T20:06:44Z</time>
      </trkpt>
      <trkpt lat="48.85833" lon="2.3138">
        <ele>48</ele>
        <time>2013-08-21T20:07:11Z</time>
      </trkpt>
      <trkpt lat="48.85788" lon="2.31456">
        <ele>48</ele>
        <time>2013-08-21T20:07:30Z</time>
      </trkpt>
      <trkpt lat="48.85751" lon="2.31474">
        <ele>48</ele>
        <time>2013-08-21T20:07:38Z</time>
      </trkpt>
      <trkpt lat="48.85747" lon="2.31404">
        <ele>48</ele>
        <time>2013-08-21T20:07:45Z</time>
      </trkpt>
      <trkpt lat="48.85749" lon="2.31388">
        <ele>48</ele>
        <time>2013-08-21T20:07:47Z</time>
      </trkpt>
      <trkpt lat="48.85671" lon="2.3149">
        <ele>48</ele>
        <time>2013-08-21T20:07:53Z</time>
      </trkpt>
      <trkpt lat="48.85629" lon="2.31512">
        <ele>48</ele>
        <time>2013-08-21T20:08:20Z</time>
      </trkpt>
      <trkpt lat="48.85569" lon="2.31491">
        <ele>48</ele>
        <time>2013-08-21T20:08:28Z</time>
      </trkpt>
      <trkpt lat="48.85541" lon="2.31474">
        <ele>48</ele>
        <time>2013-08-21T20:08:36Z</time>
      </trkpt>
      <trkpt lat="48.85494" lon="2.31474">
        <ele>48</ele>
        <time>2013-08-21T20:08:50Z</time>
      </trkpt>
      <trkpt lat="48.85449" lon="2.31429">
        <ele>48</ele>
        <time>2013-08-21T20:08:58Z</time>
      </trkpt>
      <trkpt lat="48.8539" lon="2.31411">
        <ele>48</ele>
        <time>2013-08-21T20:09:19Z</time>
      </trkpt>
      <trkpt lat="48.85359" lon="2.31441">
        <ele>48</ele>
        <time>2013-08-21T20:09:32Z</time>
      </trkpt>
      <trkpt lat="48.85388" lon="2.31451">
        <ele>48</ele>
        <time>2013-08-21T20:09:40Z</time>
      </trkpt>
      <trkpt lat="48.85351" lon="2.31462">
        <ele>48</ele>
        <time>2013-08-21T20:09:47Z</time>
      </trkpt>
      <trkpt lat="48.85273" lon="2.31457">
        <ele>43</ele>
        <time>2013-08-21T20:10:06Z</time>
      </trkpt>
      <trkpt lat="48.85173" lon="2.31431">
        <ele>44</ele>
        <time>2013-08-21T20:10:41Z</time>
      </trkpt>
      <trkpt lat="48.85139" lon="2.31385">
        <ele>44</ele>
        <time>2013-08-21T20:11:15Z</time>
      </trkpt>
      <trkpt lat="48.85135" lon="2.3143">
        <ele>45</ele>
        <time>2013-08-21T20:11:29Z</time>
      </trkpt>
      <trkpt lat="48.85079" lon="2.31414">
        <ele>45</ele>
        <time>2013-08-21T20:11:36Z</time>
      </trkpt>
      <trkpt lat="48.85051" lon="2.31393">
        <ele>45</ele>
        <time>2013-08-21T20:11:50Z</time>
      </trkpt>
      <trkpt lat="48.85007" lon="2.31475">
        <ele>46</ele>
        <time>2013-08-21T20:12:11Z</time>
      </trkpt>
      <trkpt lat="48.8498" lon="2.31491">
        <ele>48</ele>
        <time>2013-08-21T20:12:31Z</time>
      </trkpt>
      <trkpt lat="48.84923" lon="2.31434">
        <ele>50</ele>
        <time>2013-08-21T20:12:45Z</time>
      </trkpt>
      <trkpt lat="48.84923" lon="2.31487">
        <ele>51</ele>
        <time>2013-08-21T20:12:52Z</time>
      </trkpt>
      <trkpt lat="48.84825" lon="2.31578">
        <ele>53</ele>
        <time>2013-08-21T20:13:07Z</time>
      </trkpt>
      <trkpt lat="48.84875" lon="2.31553">
        <ele>54</ele>
        <time>2013-08-21T20:13:14Z</time>
      </trkpt>
      <trkpt lat="48.84814" lon="2.31511">
        <ele>53</ele>
        <time>2013-08-21T20:13:23Z</time>
      </trkpt>
      <trkpt lat="48.84781" lon="2.31586">
        <ele>53</ele>
        <time>2013-08-21T20:13:30Z</time>
      </trkpt>
      <trkpt lat="48.84758" lon="2.31622">
        <ele>48</ele>
        <time>2013-08-21T20:13:37Z</time>
      </trkpt>
      <trkpt lat="48.84721" lon="2.31637">
        <ele>46</ele>
        <time>2013-08-21T20:13:50Z</time>
      </trkpt>
      <trkpt lat="48.8469" lon="2.31638">
        <ele>47</ele>
        <time>2013-08-21T20:14:10Z</time>
      </trkpt>
      <trkpt lat="48.84676" lon="2.3169">
        <ele>49</ele>
        <time>2013-08-21T20:14:40Z</time>
      </trkpt>
      <trkpt lat="48.84655" lon="2.31722">
        <ele>50</ele>
        <time>2013-08-21T20:14:47Z</time>
      </trkpt>
      <trkpt lat="48.84614" lon="2.31774">
        <ele>52</ele>
        <time>2013-08-21T20:15:15Z</time>
      </trkpt>
      <trkpt lat="48.84602" lon="2.31818">
        <ele>54</ele>
        <time>2013-08-21T20:15:35Z</time>
      </trkpt>
      <trkpt lat="48.84579" lon="2.31856">
        <ele>55</ele>
        <time>2013-08-21T20:15:42Z</time>
      </trkpt>
      <trkpt lat="48.84526" lon="2.31901">
        <ele>56</ele>
        <time>2013-08-21T20:15:56Z</time>
      </trkpt>
      <trkpt lat="48.84551" lon="2.31945">
        <ele>57</ele>
        <time>2013-08-21T20:16:11Z</time>
      </trkpt>
      <trkpt lat="48.84521" lon="2.31981">
        <ele>58</ele>
        <time>2013-08-21T20:16:18Z</time>
      </trkpt>
      <trkpt lat="48.845" lon="2.32014">
        <ele>58</ele>
        <time>2013-08-21T20:16:25Z</time>
      </trkpt>
      <trkpt lat="48.84501" lon="2.3206">
        <ele>61</ele>
        <time>2013-08-21T20:17:23Z</time>
      </trkpt>
      <trkpt lat="48.84457" lon="2.32079">
        <ele>62</ele>
        <time>2013-08-21T20:17:37Z</time>
      </trkpt>
      <trkpt lat="48.84446" lon="2.32179">
        <ele>62</ele>
        <time>2013-08-21T20:17:44Z</time>
      </trkpt>
      <trkpt lat="48.84431" lon="2.32242">
        <ele>62</ele>
        <time>2013-08-21T20:17:58Z</time>
      </trkpt>
      <trkpt lat="48.84386" lon="2.32306">
        <ele>63</ele>
        <time>2013-08-21T20:18:20Z</time>
      </trkpt>
      <trkpt lat="48.8435" lon="2.32297">
        <ele>63</ele>
        <time>2013-08-21T20:18:43Z</time>
      </trkpt>
      <trkpt lat="48.8438" lon="2.32347">
        <ele>64</ele>
        <time>2013-08-21T20:19:04Z</time>
      </trkpt>
      <trkpt lat="48.84346" lon="2.32325">
        <ele>64</ele>
        <time>2013-08-21T20:19:18Z</time>
      </trkpt>
      <trkpt lat="48.84378" lon="2.32346">
        <ele>64</ele>
        <time>2013-08-21T20:19:32Z</time>
      </trkpt>
      <trkpt lat="48.84364" lon="2.32392">
        <ele>64</ele>
        <time>2013-08-21T20:19:39Z</time>
      </trkpt>
      <trkpt lat="48.84357" lon="2.32449">
        <ele>64</ele>
        <time>2013-08-21T20:20:40Z</time>
      </trkpt>
      <trkpt lat="48.84328" lon="2.32547">
        <ele>64</ele>
        <time>2013-08-21T20:21:01Z</time>
      </trkpt>
      <trkpt lat="48.84323" lon="2.32591">
        <ele>64</ele>
        <time>2013-08-21T20:21:10Z</time>
      </trkpt>
      <trkpt lat="48.84292" lon="2.32626">
        <ele>64</ele>
        <time>2013-08-21T20:21:31Z</time>
      </trkpt>
      <trkpt lat="48.84288" lon="2.32693">
        <ele>64</ele>
        <time>2013-08-21T20:21:44Z</time>
      </trkpt>
      <trkpt lat="48.84261" lon="2.32772">
        <ele>64</ele>
        <time>2013-08-21T20:21:51Z</time>
      </trkpt>
      <trkpt lat="48.84224" lon="2.32904">
        <ele>64</ele>
        <time>2013-08-21T20:22:32Z</time>
      </trkpt>
      <trkpt lat="48.84181" lon="2.32957">
        <ele>64</ele>
        <time>2013-08-21T20:23:00Z</time>
      </trkpt>
      <trkpt lat="48.84175" lon="2.33018">
        <ele>64</ele>
        <time>2013-08-21T20:23:31Z</time>
      </trkpt>
      <trkpt lat="48.84162" lon="2.33089">
        <ele>64</ele>
        <time>2013-08-21T20:23:53Z</time>
      </trkpt>
      <trkpt lat="48.84136" lon="2.33172">
        <ele>64</ele>
        <time>2013-08-21T20:24:08Z</time>
      </trkpt>
      <trkpt lat="48.84136" lon="2.33172">
        <ele>64</ele>
        <time>2013-08-21T20:24:08Z</time>
      </trkpt>
      <trkpt lat="48.84066" lon="2.33368">
        <ele>64</ele>
        <time>2013-08-21T20:24:37Z</time>
      </trkpt>
      <trkpt lat="48.84002" lon="2.33609">
        <ele>64</ele>
        <time>2013-08-21T20:25:51Z</time>
      </trkpt>
      <trkpt lat="48.8398" lon="2.33667">
        <ele>64</ele>
        <time>2013-08-21T20:26:12Z</time>
      </trkpt>
      <trkpt lat="48.83946" lon="2.33676">
        <ele>64</ele>
        <time>2013-08-21T20:26:27Z</time>
      </trkpt>
      <trkpt lat="48.83993" lon="2.33669">
        <ele>64</ele>
        <time>2013-08-21T20:27:04Z</time>
      </trkpt>
      <trkpt lat="48.84028" lon="2.33677">
        <ele>64</ele>
        <time>2013-08-21T20:27:11Z</time>
      </trkpt>
      <trkpt lat="48.84066" lon="2.33702">
        <ele>64</ele>
        <time>2013-08-21T20:27:38Z</time>
      </trkpt>
      <trkpt lat="48.84103" lon="2.33716">
        <ele>64</ele>
        <time>2013-08-21T20:27:45Z</time>
      </trkpt>
      <trkpt lat="48.84139" lon="2.33745">
        <ele>64</ele>
        <time>2013-08-21T20:27:59Z</time>
      </trkpt>
      <trkpt lat="48.84221" lon="2.3379">
        <ele>64</ele>
        <time>2013-08-21T20:28:15Z</time>
      </trkpt>
      <trkpt lat="48.84221" lon="2.3379">
        <ele>64</ele>
        <time>2013-08-21T20:28:15Z</time>
      </trkpt>
      <trkpt lat="48.8446" lon="2.3392">
        <ele>64</ele>
        <time>2013-08-21T20:29:00Z</time>
      </trkpt>
      <trkpt lat="48.84497" lon="2.33951">
        <ele>64</ele>
        <time>2013-08-21T20:29:08Z</time>
      </trkpt>
      <trkpt lat="48.84533" lon="2.33975">
        <ele>64</ele>
        <time>2013-08-21T20:29:15Z</time>
      </trkpt>
      <trkpt lat="48.84612" lon="2.34014">
        <ele>64</ele>
        <time>2013-08-21T20:29:29Z</time>
      </trkpt>
      <trkpt lat="48.84634" lon="2.34051">
        <ele>64</ele>
        <time>2013-08-21T20:29:36Z</time>
      </trkpt>
      <trkpt lat="48.84666" lon="2.34034">
        <ele>64</ele>
        <time>2013-08-21T20:29:43Z</time>
      </trkpt>
      <trkpt lat="48.84706" lon="2.34078">
        <ele>64</ele>
        <time>2013-08-21T20:30:04Z</time>
      </trkpt>
      <trkpt lat="48.84738" lon="2.34098">
        <ele>64</ele>
        <time>2013-08-21T20:30:11Z</time>
      </trkpt>
      <trkpt lat="48.84732" lon="2.34145">
        <ele>64</ele>
        <time>2013-08-21T20:30:18Z</time>
      </trkpt>
      <trkpt lat="48.84745" lon="2.34105">
        <ele>64</ele>
        <time>2013-08-21T20:31:06Z</time>
      </trkpt>
      <trkpt lat="48.84745" lon="2.34105">
        <ele>59</ele>
        <time>2013-08-21T20:31:06Z</time>
      </trkpt>
      <trkpt lat="48.84753" lon="2.341">
        <ele>57</ele>
        <time>2013-08-21T20:46:54Z</time>
      </trkpt>
      <trkpt lat="48.84754" lon="2.34099">
        <ele>57</ele>
        <time>2013-08-21T20:53:34Z</time>
      </trkpt>
      <trkpt lat="48.84789" lon="2.34113">
        <ele>58</ele>
        <time>2013-08-21T20:56:08Z</time>
      </trkpt>
      <trkpt lat="48.84824" lon="2.34149">
        <ele>58</ele>
        <time>2013-08-21T20:56:15Z</time>
      </trkpt>
      <trkpt lat="48.84928" lon="2.3421">
        <ele>58</ele>
        <time>2013-08-21T20:56:29Z</time>
      </trkpt>
      <trkpt lat="48.84966" lon="2.34224">
        <ele>59</ele>
        <time>2013-08-21T20:56:38Z</time>
      </trkpt>
      <trkpt lat="48.85012" lon="2.34281">
        <ele>58</ele>
        <time>2013-08-21T20:56:45Z</time>
      </trkpt>
      <trkpt lat="48.85043" lon="2.34284">
        <ele>55</ele>
        <time>2013-08-21T20:56:56Z</time>
      </trkpt>
      <trkpt lat="48.85122" lon="2.34337">
        <ele>54</ele>
        <time>2013-08-21T20:57:08Z</time>
      </trkpt>
      <trkpt lat="48.8518" lon="2.34344">
        <ele>52</ele>
        <time>2013-08-21T20:57:25Z</time>
      </trkpt>
      <trkpt lat="48.85286" lon="2.344">
        <ele>50</ele>
        <time>2013-08-21T20:57:39Z</time>
      </trkpt>
      <trkpt lat="48.85331" lon="2.34403">
        <ele>49</ele>
        <time>2013-08-21T20:57:54Z</time>
      </trkpt>
      <trkpt lat="48.85356" lon="2.34425">
        <ele>49</ele>
        <time>2013-08-21T20:58:11Z</time>
      </trkpt>
      <trkpt lat="48.85378" lon="2.34463">
        <ele>49</ele>
        <time>2013-08-21T20:58:31Z</time>
      </trkpt>
      <trkpt lat="48.85417" lon="2.34451">
        <ele>49</ele>
        <time>2013-08-21T20:58:58Z</time>
      </trkpt>
      <trkpt lat="48.85464" lon="2.34505">
        <ele>49</ele>
        <time>2013-08-21T20:59:05Z</time>
      </trkpt>
      <trkpt lat="48.85487" lon="2.34549">
        <ele>49</ele>
        <time>2013-08-21T20:59:19Z</time>
      </trkpt>
      <trkpt lat="48.85529" lon="2.34598">
        <ele>49</ele>
        <time>2013-08-21T20:59:25Z</time>
      </trkpt>
      <trkpt lat="48.85527" lon="2.34674">
        <ele>49</ele>
        <time>2013-08-21T20:59:32Z</time>
      </trkpt>
      <trkpt lat="48.8555" lon="2.34624">
        <ele>49</ele>
        <time>2013-08-21T20:59:38Z</time>
      </trkpt>
      <trkpt lat="48.85516" lon="2.34543">
        <ele>49</ele>
        <time>2013-08-21T20:59:45Z</time>
      </trkpt>
      <trkpt lat="48.85615" lon="2.34652">
        <ele>49</ele>
        <time>2013-08-21T20:59:51Z</time>
      </trkpt>
      <trkpt lat="48.85689" lon="2.34792">
        <ele>48</ele>
        <time>2013-08-21T20:59:59Z</time>
      </trkpt>
      <trkpt lat="48.85651" lon="2.34839">
        <ele>48</ele>
        <time>2013-08-21T21:00:10Z</time>
      </trkpt>
      <trkpt lat="48.85668" lon="2.3479">
        <ele>48</ele>
        <time>2013-08-21T21:00:17Z</time>
      </trkpt>
      <trkpt lat="48.8568" lon="2.34737">
        <ele>48</ele>
        <time>2013-08-21T21:00:24Z</time>
      </trkpt>
      <trkpt lat="48.85627" lon="2.34767">
        <ele>48</ele>
        <time>2013-08-21T21:00:32Z</time>
      </trkpt>
      <trkpt lat="48.8566" lon="2.34806">
        <ele>48</ele>
        <time>2013-08-21T21:00:38Z</time>
      </trkpt>
      <trkpt lat="48.85687" lon="2.34749">
        <ele>48</ele>
        <time>2013-08-21T21:00:44Z</time>
      </trkpt>
      <trkpt lat="48.85669" lon="2.34815">
        <ele>48</ele>
        <time>2013-08-21T21:00:51Z</time>
      </trkpt>
      <trkpt lat="48.85705" lon="2.34747">
        <ele>48</ele>
        <time>2013-08-21T21:01:03Z</time>
      </trkpt>
      <trkpt lat="48.85767" lon="2.34751">
        <ele>48</ele>
        <time>2013-08-21T21:01:11Z</time>
      </trkpt>
      <trkpt lat="48.85775" lon="2.34821">
        <ele>47</ele>
        <time>2013-08-21T21:01:22Z</time>
      </trkpt>
      <trkpt lat="48.85766" lon="2.34835">
        <ele>47</ele>
        <time>2013-08-21T21:01:28Z</time>
      </trkpt>
      <trkpt lat="48.85797" lon="2.34814">
        <ele>47</ele>
        <time>2013-08-21T21:01:38Z</time>
      </trkpt>
      <trkpt lat="48.85837" lon="2.34813">
        <ele>47</ele>
        <time>2013-08-21T21:01:53Z</time>
      </trkpt>
      <trkpt lat="48.85823" lon="2.34878">
        <ele>48</ele>
        <time>2013-08-21T21:02:07Z</time>
      </trkpt>
      <trkpt lat="48.85855" lon="2.34844">
        <ele>48</ele>
        <time>2013-08-21T21:02:32Z</time>
      </trkpt>
      <trkpt lat="48.85894" lon="2.34843">
        <ele>48</ele>
        <time>2013-08-21T21:02:46Z</time>
      </trkpt>
      <trkpt lat="48.85927" lon="2.34872">
        <ele>48</ele>
        <time>2013-08-21T21:02:56Z</time>
      </trkpt>
      <trkpt lat="48.85975" lon="2.34882">
        <ele>48</ele>
        <time>2013-08-21T21:03:17Z</time>
      </trkpt>
      <trkpt lat="48.86009" lon="2.34925">
        <ele>48</ele>
        <time>2013-08-21T21:03:25Z</time>
      </trkpt>
      <trkpt lat="48.86045" lon="2.34937">
        <ele>47</ele>
        <time>2013-08-21T21:03:40Z</time>
      </trkpt>
      <trkpt lat="48.86077" lon="2.34933">
        <ele>47</ele>
        <time>2013-08-21T21:03:57Z</time>
      </trkpt>
      <trkpt lat="48.86146" lon="2.34981">
        <ele>47</ele>
        <time>2013-08-21T21:04:13Z</time>
      </trkpt>
      <trkpt lat="48.86189" lon="2.35034">
        <ele>48</ele>
        <time>2013-08-21T21:04:28Z</time>
      </trkpt>
      <trkpt lat="48.86225" lon="2.35017">
        <ele>49</ele>
        <time>2013-08-21T21:04:44Z</time>
      </trkpt>
      <trkpt lat="48.86266" lon="2.35049">
        <ele>50</ele>
        <time>2013-08-21T21:04:52Z</time>
      </trkpt>
      <trkpt lat="48.86306" lon="2.3506">
        <ele>50</ele>
        <time>2013-08-21T21:04:59Z</time>
      </trkpt>
      <trkpt lat="48.86337" lon="2.35085">
        <ele>51</ele>
        <time>2013-08-21T21:05:13Z</time>
      </trkpt>
      <trkpt lat="48.86403" lon="2.35116">
        <ele>55</ele>
        <time>2013-08-21T21:06:13Z</time>
      </trkpt>
      <trkpt lat="48.86462" lon="2.35197">
        <ele>55</ele>
        <time>2013-08-21T21:06:35Z</time>
      </trkpt>
      <trkpt lat="48.86498" lon="2.35184">
        <ele>55</ele>
        <time>2013-08-21T21:06:49Z</time>
      </trkpt>
      <trkpt lat="48.86528" lon="2.35198">
        <ele>56</ele>
        <time>2013-08-21T21:07:03Z</time>
      </trkpt>
      <trkpt lat="48.86618" lon="2.35265">
        <ele>56</ele>
        <time>2013-08-21T21:07:46Z</time>
      </trkpt>
      <trkpt lat="48.86669" lon="2.3528">
        <ele>56</ele>
        <time>2013-08-21T21:08:00Z</time>
      </trkpt>
      <trkpt lat="48.86701" lon="2.35318">
        <ele>56</ele>
        <time>2013-08-21T21:08:14Z</time>
      </trkpt>
      <trkpt lat="48.86722" lon="2.35361">
        <ele>56</ele>
        <time>2013-08-21T21:08:28Z</time>
      </trkpt>
      <trkpt lat="48.8675" lon="2.35339">
        <ele>56</ele>
        <time>2013-08-21T21:08:36Z</time>
      </trkpt>
      <trkpt lat="48.86785" lon="2.35354">
        <ele>56</ele>
        <time>2013-08-21T21:08:43Z</time>
      </trkpt>
      <trkpt lat="48.86891" lon="2.35428">
        <ele>56</ele>
        <time>2013-08-21T21:09:13Z</time>
      </trkpt>
      <trkpt lat="48.86934" lon="2.35433">
        <ele>56</ele>
        <time>2013-08-21T21:09:26Z</time>
      </trkpt>
      <trkpt lat="48.86918" lon="2.35486">
        <ele>56</ele>
        <time>2013-08-21T21:10:00Z</time>
      </trkpt>
      <trkpt lat="48.86912" lon="2.35558">
        <ele>56</ele>
        <time>2013-08-21T21:10:14Z</time>
      </trkpt>
      <trkpt lat="48.86951" lon="2.35586">
        <ele>56</ele>
        <time>2013-08-21T21:10:24Z</time>
      </trkpt>
      <trkpt lat="48.86991" lon="2.35609">
        <ele>53</ele>
        <time>2013-08-21T21:10:38Z</time>
      </trkpt>
      <trkpt lat="48.86991" lon="2.35609">
        <ele>51</ele>
        <time>2013-08-21T21:10:38Z</time>
      </trkpt>
      <trkpt lat="48.87193" lon="2.35742">
        <ele>53</ele>
        <time>2013-08-21T21:11:46Z</time>
      </trkpt>
      <trkpt lat="48.87236" lon="2.35757">
        <ele>54</ele>
        <time>2013-08-21T21:12:08Z</time>
      </trkpt>
      <trkpt lat="48.87306" lon="2.35796">
        <ele>55</ele>
        <time>2013-08-21T21:12:38Z</time>
      </trkpt>
      <trkpt lat="48.8734" lon="2.35834">
        <ele>55</ele>
        <time>2013-08-21T21:12:47Z</time>
      </trkpt>
      <trkpt lat="48.87402" lon="2.35828">
        <ele>56</ele>
        <time>2013-08-21T21:13:03Z</time>
      </trkpt>
      <trkpt lat="48.87457" lon="2.35851">
        <ele>56</ele>
        <time>2013-08-21T21:13:40Z</time>
      </trkpt>
      <trkpt lat="48.87495" lon="2.35903">
        <ele>56</ele>
        <time>2013-08-21T21:13:56Z</time>
      </trkpt>
      <trkpt lat="48.87528" lon="2.35932">
        <ele>56</ele>
        <time>2013-08-21T21:14:25Z</time>
      </trkpt>
      <trkpt lat="48.87569" lon="2.35957">
        <ele>52</ele>
        <time>2013-08-21T21:14:39Z</time>
      </trkpt>
      <trkpt lat="48.87602" lon="2.35991">
        <ele>52</ele>
        <time>2013-08-21T21:14:59Z</time>
      </trkpt>
      <trkpt lat="48.87572" lon="2.35962">
        <ele>51</ele>
        <time>2013-08-21T21:15:05Z</time>
      </trkpt>
      <trkpt lat="48.87604" lon="2.36038">
        <ele>52</ele>
        <time>2013-08-21T21:15:32Z</time>
      </trkpt>
      <trkpt lat="48.87658" lon="2.36077">
        <ele>52</ele>
        <time>2013-08-21T21:15:46Z</time>
      </trkpt>
      <trkpt lat="48.87703" lon="2.36094">
        <ele>53</ele>
        <time>2013-08-21T21:15:53Z</time>
      </trkpt>
      <trkpt lat="48.87729" lon="2.36135">
        <ele>53</ele>
        <time>2013-08-21T21:16:07Z</time>
      </trkpt>
      <trkpt lat="48.8776" lon="2.36144">
        <ele>54</ele>
        <time>2013-08-21T21:16:14Z</time>
      </trkpt>
      <trkpt lat="48.878" lon="2.36119">
        <ele>55</ele>
        <time>2013-08-21T21:16:35Z</time>
      </trkpt>
      <trkpt lat="48.87852" lon="2.36184">
        <ele>55</ele>
        <time>2013-08-21T21:16:42Z</time>
      </trkpt>
      <trkpt lat="48.87883" lon="2.36216">
        <ele>55</ele>
        <time>2013-08-21T21:17:05Z</time>
      </trkpt>
      <trkpt lat="48.87912" lon="2.36268">
        <ele>56</ele>
        <time>2013-08-21T21:17:53Z</time>
      </trkpt>
      <trkpt lat="48.87963" lon="2.36339">
        <ele>56</ele>
        <time>2013-08-21T21:18:08Z</time>
      </trkpt>
      <trkpt lat="48.8808" lon="2.36473">
        <ele>57</ele>
        <time>2013-08-21T21:18:38Z</time>
      </trkpt>
      <trkpt lat="48.88119" lon="2.36499">
        <ele>57</ele>
        <time>2013-08-21T21:18:46Z</time>
      </trkpt>
      <trkpt lat="48.88146" lon="2.36542">
        <ele>57</ele>
        <time>2013-08-21T21:19:07Z</time>
      </trkpt>
      <trkpt lat="48.88168" lon="2.36589">
        <ele>57</ele>
        <time>2013-08-21T21:19:14Z</time>
      </trkpt>
      <trkpt lat="48.88193" lon="2.36623">
        <ele>57</ele>
        <time>2013-08-21T21:19:28Z</time>
      </trkpt>
      <trkpt lat="48.88221" lon="2.36646">
        <ele>57</ele>
        <time>2013-08-21T21:19:37Z</time>
      </trkpt>
      <trkpt lat="48.88263" lon="2.36675">
        <ele>57</ele>
        <time>2013-08-21T21:20:01Z</time>
      </trkpt>
      <trkpt lat="48.88281" lon="2.36716">
        <ele>57</ele>
        <time>2013-08-21T21:20:09Z</time>
      </trkpt>
      <trkpt lat="48.88309" lon="2.36763">
        <ele>57</ele>
        <time>2013-08-21T21:20:24Z</time>
      </trkpt>
      <trkpt lat="48.88355" lon="2.36821">
        <ele>57</ele>
        <time>2013-08-21T21:20:38Z</time>
      </trkpt>
      <trkpt lat="48.88368" lon="2.36876">
        <ele>57</ele>
        <time>2013-08-21T21:21:08Z</time>
      </trkpt>
      <trkpt lat="48.88351" lon="2.36915">
        <ele>57</ele>
        <time>2013-08-21T21:21:42Z</time>
      </trkpt>
      <trkpt lat="48.88392" lon="2.36927">
        <ele>57</ele>
        <time>2013-08-21T21:22:02Z</time>
      </trkpt>
      <trkpt lat="48.88405" lon="2.36975">
        <ele>57</ele>
        <time>2013-08-21T21:22:16Z</time>
      </trkpt>
      <trkpt lat="48.88438" lon="2.37029">
        <ele>57</ele>
        <time>2013-08-21T21:22:23Z</time>
      </trkpt>
      <trkpt lat="48.88468" lon="2.371">
        <ele>57</ele>
        <time>2013-08-21T21:22:38Z</time>
      </trkpt>
      <trkpt lat="48.88529" lon="2.37294">
        <ele>57</ele>
        <time>2013-08-21T21:22:59Z</time>
      </trkpt>
      <trkpt lat="48.88552" lon="2.37323">
        <ele>58</ele>
        <time>2013-08-21T21:23:14Z</time>
      </trkpt>
      <trkpt lat="48.88603" lon="2.37421">
        <ele>58</ele>
        <time>2013-08-21T21:23:29Z</time>
      </trkpt>
      <trkpt lat="48.88625" lon="2.37453">
        <ele>58</ele>
        <time>2013-08-21T21:23:43Z</time>
      </trkpt>
      <trkpt lat="48.88654" lon="2.37482">
        <ele>58</ele>
        <time>2013-08-21T21:23:51Z</time>
      </trkpt>
      <trkpt lat="48.88698" lon="2.37557">
        <ele>57</ele>
        <time>2013-08-21T21:24:06Z</time>
      </trkpt>
      <trkpt lat="48.8872" lon="2.37614">
        <ele>57</ele>
        <time>2013-08-21T21:24:13Z</time>
      </trkpt>
      <trkpt lat="48.88726" lon="2.37676">
        <ele>57</ele>
        <time>2013-08-21T21:24:29Z</time>
      </trkpt>
      <trkpt lat="48.88716" lon="2.3772">
        <ele>57</ele>
        <time>2013-08-21T21:24:36Z</time>
      </trkpt>
      <trkpt lat="48.88769" lon="2.37736">
        <ele>57</ele>
        <time>2013-08-21T21:24:44Z</time>
      </trkpt>
      <trkpt lat="48.88795" lon="2.37763">
        <ele>57</ele>
        <time>2013-08-21T21:24:51Z</time>
      </trkpt>
      <trkpt lat="48.8887" lon="2.37903">
        <ele>58</ele>
        <time>2013-08-21T21:25:25Z</time>
      </trkpt>
      <trkpt lat="48.88846" lon="2.37965">
        <ele>59</ele>
        <time>2013-08-21T21:26:01Z</time>
      </trkpt>
      <trkpt lat="48.88867" lon="2.38">
        <ele>59</ele>
        <time>2013-08-21T21:26:08Z</time>
      </trkpt>
      <trkpt lat="48.88906" lon="2.38096">
        <ele>59</ele>
        <time>2013-08-21T21:26:30Z</time>
      </trkpt>
      <trkpt lat="48.88978" lon="2.38241">
        <ele>58</ele>
        <time>2013-08-21T21:27:00Z</time>
      </trkpt>
      <trkpt lat="48.89001" lon="2.38375">
        <ele>58</ele>
        <time>2013-08-21T21:27:23Z</time>
      </trkpt>
      <trkpt lat="48.8903" lon="2.38457">
        <ele>57</ele>
        <time>2013-08-21T21:27:45Z</time>
      </trkpt>
      <trkpt lat="48.89082" lon="2.3845">
        <ele>57</ele>
        <time>2013-08-21T21:27:52Z</time>
      </trkpt>
      <trkpt lat="48.89124" lon="2.38521">
        <ele>57</ele>
        <time>2013-08-21T21:28:06Z</time>
      </trkpt>
      <trkpt lat="48.89195" lon="2.38617">
        <ele>57</ele>
        <time>2013-08-21T21:28:21Z</time>
      </trkpt>
      <trkpt lat="48.89234" lon="2.38628">
        <ele>57</ele>
        <time>2013-08-21T21:28:49Z</time>
      </trkpt>
      <trkpt lat="48.89187" lon="2.38576">
        <ele>57</ele>
        <time>2013-08-21T21:28:58Z</time>
      </trkpt>
      <trkpt lat="48.89342" lon="2.38557">
        <ele>57</ele>
        <time>2013-08-21T21:29:12Z</time>
      </trkpt>
      <trkpt lat="48.8938" lon="2.38524">
        <ele>57</ele>
        <time>2013-08-21T21:29:21Z</time>
      </trkpt>
      <trkpt lat="48.89472" lon="2.3851">
        <ele>57</ele>
        <time>2013-08-21T21:29:35Z</time>
      </trkpt>
      <trkpt lat="48.89515" lon="2.38542">
        <ele>57</ele>
        <time>2013-08-21T21:29:42Z</time>
      </trkpt>
      <trkpt lat="48.89581" lon="2.38488">
        <ele>56</ele>
        <time>2013-08-21T21:29:49Z</time>
      </trkpt>
      <trkpt lat="48.89537" lon="2.38447">
        <ele>56</ele>
        <time>2013-08-21T21:29:55Z</time>
      </trkpt>
      <trkpt lat="48.89562" lon="2.38366">
        <ele>56</ele>
        <time>2013-08-21T21:30:00Z</time>
      </trkpt>
      <trkpt lat="48.89539" lon="2.38468">
        <ele>55</ele>
        <time>2013-08-21T21:30:15Z</time>
      </trkpt>
      <trkpt lat="48.89552" lon="2.38476">
        <ele>55</ele>
        <time>2013-08-21T21:30:21Z</time>
      </trkpt>
      <trkpt lat="48.89613" lon="2.38453">
        <ele>53</ele>
        <time>2013-08-21T21:30:28Z</time>
      </trkpt>
      <trkpt lat="48.89641" lon="2.38476">
        <ele>53</ele>
        <time>2013-08-21T21:30:34Z</time>
      </trkpt>
      <trkpt lat="48.89678" lon="2.38473">
        <ele>53</ele>
        <time>2013-08-21T21:30:41Z</time>
      </trkpt>
      <trkpt lat="48.89702" lon="2.38506">
        <ele>54</ele>
        <time>2013-08-21T21:30:55Z</time>
      </trkpt>
      <trkpt lat="48.89713" lon="2.38568">
        <ele>54</ele>
        <time>2013-08-21T21:31:02Z</time>
      </trkpt>
      <trkpt lat="48.89845" lon="2.38602">
        <ele>54</ele>
        <time>2013-08-21T21:31:36Z</time>
      </trkpt>
      <trkpt lat="48.89906" lon="2.38579">
        <ele>53</ele>
        <time>2013-08-21T21:31:42Z</time>
      </trkpt>
      <trkpt lat="48.8985" lon="2.38584">
        <ele>52</ele>
        <time>2013-08-21T21:31:49Z</time>
      </trkpt>
      <trkpt lat="48.89822" lon="2.38618">
        <ele>52</ele>
        <time>2013-08-21T21:32:03Z</time>
      </trkpt>
      <trkpt lat="48.89898" lon="2.38671">
        <ele>52</ele>
        <time>2013-08-21T21:32:10Z</time>
      </trkpt>
      <trkpt lat="48.89869" lon="2.38678">
        <ele>52</ele>
        <time>2013-08-21T21:32:16Z</time>
      </trkpt>
      <trkpt lat="48.89934" lon="2.3875">
        <ele>53</ele>
        <time>2013-08-21T21:32:24Z</time>
      </trkpt>
      <trkpt lat="48.89877" lon="2.38692">
        <ele>53</ele>
        <time>2013-08-21T21:32:37Z</time>
      </trkpt>
      <trkpt lat="48.90102" lon="2.38889">
        <ele>49</ele>
        <time>2013-08-21T21:32:53Z</time>
      </trkpt>
      <trkpt lat="48.90078" lon="2.38855">
        <ele>50</ele>
        <time>2013-08-21T21:33:09Z</time>
      </trkpt>
      <trkpt lat="48.90129" lon="2.38815">
        <ele>52</ele>
        <time>2013-08-21T21:33:37Z</time>
      </trkpt>
      <trkpt lat="48.90124" lon="2.38859">
        <ele>52</ele>
        <time>2013-08-21T21:33:45Z</time>
      </trkpt>
      <trkpt lat="48.90073" lon="2.38824">
        <ele>50</ele>
        <time>2013-08-21T21:34:21Z</time>
      </trkpt>
      <trkpt lat="48.90115" lon="2.38981">
        <ele>50</ele>
        <time>2013-08-21T21:34:27Z</time>
      </trkpt>
      <trkpt lat="48.90106" lon="2.38923">
        <ele>50</ele>
        <time>2013-08-21T21:34:35Z</time>
      </trkpt>
      <trkpt lat="48.90117" lon="2.38968">
        <ele>50</ele>
        <time>2013-08-21T21:35:09Z</time>
      </trkpt>
      <trkpt lat="48.90154" lon="2.38982">
        <ele>50</ele>
        <time>2013-08-21T21:35:16Z</time>
      </trkpt>
      <trkpt lat="48.90184" lon="2.3901">
        <ele>50</ele>
        <time>2013-08-21T21:36:13Z</time>
      </trkpt>
      <trkpt lat="48.90184" lon="2.3901">
        <ele>50</ele>
        <time>2013-08-21T21:36:13Z</time>
      </trkpt>
      <trkpt lat="48.9032" lon="2.39163">
        <ele>45</ele>
        <time>2013-08-21T21:37:17Z</time>
      </trkpt>
      <trkpt lat="48.9038" lon="2.39195">
        <ele>44</ele>
        <time>2013-08-21T21:37:32Z</time>
      </trkpt>
      <trkpt lat="48.9041" lon="2.39163">
        <ele>44</ele>
        <time>2013-08-21T21:37:40Z</time>
      </trkpt>
      <trkpt lat="48.9041" lon="2.39163">
        <ele>44</ele>
        <time>2013-08-21T21:37:40Z</time>
      </trkpt>
      <trkpt lat="48.90569" lon="2.39003">
        <ele>47</ele>
        <time>2013-08-21T21:38:16Z</time>
      </trkpt>
      <trkpt lat="48.90618" lon="2.38956">
        <ele>48</ele>
        <time>2013-08-21T21:38:31Z</time>
      </trkpt>
      <trkpt lat="48.90667" lon="2.38951">
        <ele>47</ele>
        <time>2013-08-21T21:38:59Z</time>
      </trkpt>
      <trkpt lat="48.90682" lon="2.38909">
        <ele>47</ele>
        <time>2013-08-21T21:39:06Z</time>
      </trkpt>
      <trkpt lat="48.9075" lon="2.38868">
        <ele>46</ele>
        <time>2013-08-21T21:39:21Z</time>
      </trkpt>
      <trkpt lat="48.90759" lon="2.3881">
        <ele>45</ele>
        <time>2013-08-21T21:39:36Z</time>
      </trkpt>
      <trkpt lat="48.90796" lon="2.38798">
        <ele>45</ele>
        <time>2013-08-21T21:39:50Z</time>
      </trkpt>
      <trkpt lat="48.90831" lon="2.3881">
        <ele>51</ele>
        <time>2013-08-21T21:40:11Z</time>
      </trkpt>
      <trkpt lat="48.90894" lon="2.38785">
        <ele>47</ele>
        <time>2013-08-21T21:40:32Z</time>
      </trkpt>
      <trkpt lat="48.90918" lon="2.38757">
        <ele>43</ele>
        <time>2013-08-21T21:41:10Z</time>
      </trkpt>
      <trkpt lat="48.90915" lon="2.38712">
        <ele>44</ele>
        <time>2013-08-21T21:42:45Z</time>
      </trkpt>
      <trkpt lat="48.90915" lon="2.38712">
        <ele>44</ele>
        <time>2013-08-21T21:42:45Z</time>
      </trkpt>
    </trkseg>
  </trk>
</gpx>